sensor_id;sensor_type;location;lat;lon;timestamp;temperature;humidity
15949;DHT22;14848;50.954;6.642;2023-08-07T00:01:54;12.80;99.90
15949;DHT22;14848;50.954;6.642;2023-08-07T00:04:20;12.70;99.90
15949;DHT22;14848;50.954;6.642;2023-08-07T00:06:45;12.70;99.90
15949;DHT22;14848;50.954;6.642;2023-08-07T00:09:11;12.70;99.90
15949;DHT22;14848;50.954;6.642;2023-08-07T00:11:37;12.80;99.90
15949;DHT22;14848;50.954;6.642;2023-08-07T00:14:02;12.70;99.90
15949;DHT22;14848;50.954;6.642;2023-08-07T00:16:28;12.60;99.90
15949;DHT22;14848;50.954;6.642;2023-08-07T00:18:54;12.60;99.90
15949;DHT22;14848;50.954;6.642;2023-08-07T00:21:22;12.60;99.90
15949;DHT22;14848;50.954;6.642;2023-08-07T00:23:49;12.60;99.90
15949;DHT22;14848;50.954;6.642;2023-08-07T00:26:15;12.50;99.90
15949;DHT22;14848;50.954;6.642;2023-08-07T00:28:41;12.50;99.90
15949;DHT22;14848;50.954;6.642;2023-08-07T00:31:07;12.50;99.90
15949;DHT22;14848;50.954;6.642;2023-08-07T00:33:32;12.50;99.90
15949;DHT22;14848;50.954;6.642;2023-08-07T00:35:58;12.40;99.90
15949;DHT22;14848;50.954;6.642;2023-08-07T00:38:24;12.40;99.90
15949;DHT22;14848;50.954;6.642;2023-08-07T00:40:49;12.50;99.90
15949;DHT22;14848;50.954;6.642;2023-08-07T00:43:15;12.40;99.90
15949;DHT22;14848;50.954;6.642;2023-08-07T00:45:47;12.40;99.90
15949;DHT22;14848;50.954;6.642;2023-08-07T00:48:13;12.40;99.90
15949;DHT22;14848;50.954;6.642;2023-08-07T00:50:42;12.30;99.90
15949;DHT22;14848;50.954;6.642;2023-08-07T00:53:08;12.30;99.90
15949;DHT22;14848;50.954;6.642;2023-08-07T00:55:35;12.40;99.90
15949;DHT22;14848;50.954;6.642;2023-08-07T00:58:01;12.30;99.90
15949;DHT22;14848;50.954;6.642;2023-08-07T01:00:29;12.30;99.90
15949;DHT22;14848;50.954;6.642;2023-08-07T01:02:56;12.30;99.90
15949;DHT22;14848;50.954;6.642;2023-08-07T01:05:24;12.30;99.90
15949;DHT22;14848;50.954;6.642;2023-08-07T01:07:53;12.30;99.90
15949;DHT22;14848;50.954;6.642;2023-08-07T01:13:55;12.30;99.90
15949;DHT22;14848;50.954;6.642;2023-08-07T01:18:59;12.40;99.90
15949;DHT22;14848;50.954;6.642;2023-08-07T01:26:19;12.40;99.90
15949;DHT22;14848;50.954;6.642;2023-08-07T01:29:28;12.60;99.90
15949;DHT22;14848;50.954;6.642;2023-08-07T01:31:55;13.00;99.90
15949;DHT22;14848;50.954;6.642;2023-08-07T01:34:23;12.60;99.90
15949;DHT22;14848;50.954;6.642;2023-08-07T01:36:51;12.60;99.90
15949;DHT22;14848;50.954;6.642;2023-08-07T01:39:19;12.60;99.90
15949;DHT22;14848;50.954;6.642;2023-08-07T01:51:33;12.60;99.90
15949;DHT22;14848;50.954;6.642;2023-08-07T01:53:58;12.80;99.90
15949;DHT22;14848;50.954;6.642;2023-08-07T01:56:24;12.80;99.90
15949;DHT22;14848;50.954;6.642;2023-08-07T01:58:49;12.90;99.90
15949;DHT22;14848;50.954;6.642;2023-08-07T02:01:15;12.80;99.90
15949;DHT22;14848;50.954;6.642;2023-08-07T02:03:41;12.90;99.90
15949;DHT22;14848;50.954;6.642;2023-08-07T02:06:06;12.90;99.90
15949;DHT22;14848;50.954;6.642;2023-08-07T02:08:32;12.90;99.90
15949;DHT22;14848;50.954;6.642;2023-08-07T02:10:58;12.90;99.90
15949;DHT22;14848;50.954;6.642;2023-08-07T02:13:26;12.90;99.90
15949;DHT22;14848;50.954;6.642;2023-08-07T02:15:52;12.90;99.90
15949;DHT22;14848;50.954;6.642;2023-08-07T02:18:18;12.90;99.90
15949;DHT22;14848;50.954;6.642;2023-08-07T02:20:43;12.90;99.90
15949;DHT22;14848;50.954;6.642;2023-08-07T02:23:09;12.90;99.90
15949;DHT22;14848;50.954;6.642;2023-08-07T02:25:35;12.90;99.90
15949;DHT22;14848;50.954;6.642;2023-08-07T02:28:00;12.90;99.90
15949;DHT22;14848;50.954;6.642;2023-08-07T02:30:26;12.90;99.90
15949;DHT22;14848;50.954;6.642;2023-08-07T02:32:51;13.00;99.90
15949;DHT22;14848;50.954;6.642;2023-08-07T02:35:17;13.00;99.90
15949;DHT22;14848;50.954;6.642;2023-08-07T02:37:43;13.00;99.90
15949;DHT22;14848;50.954;6.642;2023-08-07T02:40:09;12.90;99.90
15949;DHT22;14848;50.954;6.642;2023-08-07T02:42:36;12.90;99.90
15949;DHT22;14848;50.954;6.642;2023-08-07T02:45:02;12.90;99.90
15949;DHT22;14848;50.954;6.642;2023-08-07T02:47:27;13.00;99.90
15949;DHT22;14848;50.954;6.642;2023-08-07T02:49:53;12.90;99.90
15949;DHT22;14848;50.954;6.642;2023-08-07T02:52:18;12.90;99.90
15949;DHT22;14848;50.954;6.642;2023-08-07T02:54:44;13.00;99.90
15949;DHT22;14848;50.954;6.642;2023-08-07T02:57:10;13.00;99.90
15949;DHT22;14848;50.954;6.642;2023-08-07T02:59:35;12.80;99.90
15949;DHT22;14848;50.954;6.642;2023-08-07T03:02:01;12.90;99.90
15949;DHT22;14848;50.954;6.642;2023-08-07T03:04:27;12.90;99.90
15949;DHT22;14848;50.954;6.642;2023-08-07T03:06:52;12.60;99.90
15949;DHT22;14848;50.954;6.642;2023-08-07T03:09:18;12.80;99.90
15949;DHT22;14848;50.954;6.642;2023-08-07T03:11:44;12.90;99.90
15949;DHT22;14848;50.954;6.642;2023-08-07T03:14:09;12.80;99.90
15949;DHT22;14848;50.954;6.642;2023-08-07T03:16:35;13.00;99.90
15949;DHT22;14848;50.954;6.642;2023-08-07T03:19:00;12.80;99.90
15949;DHT22;14848;50.954;6.642;2023-08-07T03:21:26;12.80;99.90
15949;DHT22;14848;50.954;6.642;2023-08-07T03:23:52;12.80;99.90
15949;DHT22;14848;50.954;6.642;2023-08-07T03:26:17;12.80;99.90
15949;DHT22;14848;50.954;6.642;2023-08-07T03:28:43;12.80;99.90
15949;DHT22;14848;50.954;6.642;2023-08-07T03:31:11;12.80;99.90
15949;DHT22;14848;50.954;6.642;2023-08-07T03:33:37;12.80;99.90
15949;DHT22;14848;50.954;6.642;2023-08-07T03:36:03;12.80;99.90
15949;DHT22;14848;50.954;6.642;2023-08-07T03:38:28;12.80;99.90
15949;DHT22;14848;50.954;6.642;2023-08-07T03:40:54;12.80;99.90
15949;DHT22;14848;50.954;6.642;2023-08-07T03:43:19;12.80;99.90
15949;DHT22;14848;50.954;6.642;2023-08-07T03:45:45;12.70;99.90
15949;DHT22;14848;50.954;6.642;2023-08-07T03:48:11;12.70;99.90
15949;DHT22;14848;50.954;6.642;2023-08-07T03:50:36;12.70;99.90
15949;DHT22;14848;50.954;6.642;2023-08-07T04:00:22;12.40;99.90
15949;DHT22;14848;50.954;6.642;2023-08-07T04:02:47;12.50;99.90
15949;DHT22;14848;50.954;6.642;2023-08-07T04:05:13;12.40;99.90
15949;DHT22;14848;50.954;6.642;2023-08-07T04:07:38;12.40;99.90
15949;DHT22;14848;50.954;6.642;2023-08-07T04:10:04;12.40;99.90
15949;DHT22;14848;50.954;6.642;2023-08-07T04:12:30;12.40;99.90
15949;DHT22;14848;50.954;6.642;2023-08-07T04:14:56;12.40;99.90
15949;DHT22;14848;50.954;6.642;2023-08-07T04:17:22;12.30;99.90
15949;DHT22;14848;50.954;6.642;2023-08-07T04:19:47;12.30;99.90
15949;DHT22;14848;50.954;6.642;2023-08-07T04:22:13;12.30;99.90
15949;DHT22;14848;50.954;6.642;2023-08-07T04:24:38;12.30;99.90
15949;DHT22;14848;50.954;6.642;2023-08-07T04:27:04;11.90;99.90
15949;DHT22;14848;50.954;6.642;2023-08-07T04:29:30;12.30;99.90
15949;DHT22;14848;50.954;6.642;2023-08-07T04:31:56;12.30;99.90
15949;DHT22;14848;50.954;6.642;2023-08-07T04:34:21;12.30;99.90
15949;DHT22;14848;50.954;6.642;2023-08-07T04:36:47;12.30;99.90
15949;DHT22;14848;50.954;6.642;2023-08-07T04:39:13;12.30;99.90
15949;DHT22;14848;50.954;6.642;2023-08-07T04:41:38;12.30;99.90
15949;DHT22;14848;50.954;6.642;2023-08-07T04:44:04;12.30;99.90
15949;DHT22;14848;50.954;6.642;2023-08-07T04:46:30;12.40;99.90
15949;DHT22;14848;50.954;6.642;2023-08-07T04:51:22;12.40;99.90
15949;DHT22;14848;50.954;6.642;2023-08-07T04:53:48;12.50;99.90
15949;DHT22;14848;50.954;6.642;2023-08-07T04:56:16;12.50;99.90
15949;DHT22;14848;50.954;6.642;2023-08-07T04:58:42;12.50;99.90
15949;DHT22;14848;50.954;6.642;2023-08-07T05:01:08;12.60;99.90
15949;DHT22;14848;50.954;6.642;2023-08-07T05:03:34;12.60;99.90
15949;DHT22;14848;50.954;6.642;2023-08-07T05:06:01;12.60;99.90
15949;DHT22;14848;50.954;6.642;2023-08-07T05:08:26;12.60;99.90
15949;DHT22;14848;50.954;6.642;2023-08-07T05:10:52;12.60;99.90
15949;DHT22;14848;50.954;6.642;2023-08-07T05:13:18;12.70;99.90
15949;DHT22;14848;50.954;6.642;2023-08-07T05:15:46;12.70;99.90
15949;DHT22;14848;50.954;6.642;2023-08-07T05:18:12;12.70;99.90
15949;DHT22;14848;50.954;6.642;2023-08-07T05:20:37;12.70;99.90
15949;DHT22;14848;50.954;6.642;2023-08-07T05:23:03;12.70;99.90
15949;DHT22;14848;50.954;6.642;2023-08-07T05:25:29;12.80;99.90
15949;DHT22;14848;50.954;6.642;2023-08-07T05:27:54;12.80;99.90
15949;DHT22;14848;50.954;6.642;2023-08-07T05:30:20;12.90;99.90
15949;DHT22;14848;50.954;6.642;2023-08-07T05:32:46;12.90;99.90
15949;DHT22;14848;50.954;6.642;2023-08-07T09:19:32;14.70;99.90
15949;DHT22;14848;50.954;6.642;2023-08-07T09:21:58;14.70;99.90
15949;DHT22;14848;50.954;6.642;2023-08-07T09:24:24;14.70;99.90
15949;DHT22;14848;50.954;6.642;2023-08-07T09:29:18;14.70;99.90
15949;DHT22;14848;50.954;6.642;2023-08-07T10:20:42;18.20;99.90
15949;DHT22;14848;50.954;6.642;2023-08-07T10:23:10;16.20;99.90
15949;DHT22;14848;50.954;6.642;2023-08-07T10:25:41;17.20;99.90
15949;DHT22;14848;50.954;6.642;2023-08-07T10:28:10;17.40;99.90
15949;DHT22;14848;50.954;6.642;2023-08-07T10:33:05;17.20;99.90
15949;DHT22;14848;50.954;6.642;2023-08-07T10:43:24;17.60;99.90
15949;DHT22;14848;50.954;6.642;2023-08-07T10:45:50;17.80;99.90
15949;DHT22;14848;50.954;6.642;2023-08-07T10:48:19;17.70;99.90
15949;DHT22;14848;50.954;6.642;2023-08-07T10:56:02;17.90;99.90
15949;DHT22;14848;50.954;6.642;2023-08-07T10:58:36;18.10;99.90
15949;DHT22;14848;50.954;6.642;2023-08-07T11:03:52;17.80;99.90
15949;DHT22;14848;50.954;6.642;2023-08-07T11:06:21;18.00;99.90
15949;DHT22;14848;50.954;6.642;2023-08-07T11:08:49;18.10;99.90
15949;DHT22;14848;50.954;6.642;2023-08-07T11:11:15;18.20;99.90
15949;DHT22;14848;50.954;6.642;2023-08-07T11:18:33;18.00;99.90
15949;DHT22;14848;50.954;6.642;2023-08-07T11:30:51;18.90;99.90
15949;DHT22;14848;50.954;6.642;2023-08-07T11:33:19;18.80;99.90
15949;DHT22;14848;50.954;6.642;2023-08-07T11:35:46;18.80;99.90
15949;DHT22;14848;50.954;6.642;2023-08-07T11:38:12;18.70;99.90
15949;DHT22;14848;50.954;6.642;2023-08-07T12:05:09;18.60;99.90
15949;DHT22;14848;50.954;6.642;2023-08-07T12:07:39;18.60;99.90
15949;DHT22;14848;50.954;6.642;2023-08-07T12:10:09;18.70;99.90
15949;DHT22;14848;50.954;6.642;2023-08-07T12:12:38;19.20;99.90
15949;DHT22;14848;50.954;6.642;2023-08-07T12:15:09;19.10;99.90
15949;DHT22;14848;50.954;6.642;2023-08-07T12:17:36;19.20;99.90
15949;DHT22;14848;50.954;6.642;2023-08-07T12:20:05;19.20;99.90
15949;DHT22;14848;50.954;6.642;2023-08-07T12:22:32;19.30;99.90
15949;DHT22;14848;50.954;6.642;2023-08-07T12:29:51;19.00;99.90
15949;DHT22;14848;50.954;6.642;2023-08-07T12:34:43;19.00;99.90
15949;DHT22;14848;50.954;6.642;2023-08-07T12:37:08;18.90;99.90
15949;DHT22;14848;50.954;6.642;2023-08-07T12:39:34;18.80;99.90
15949;DHT22;14848;50.954;6.642;2023-08-07T12:42:00;18.90;99.90
15949;DHT22;14848;50.954;6.642;2023-08-07T12:44:26;18.80;99.90
15949;DHT22;14848;50.954;6.642;2023-08-07T12:49:18;18.80;99.90
15949;DHT22;14848;50.954;6.642;2023-08-07T12:51:44;19.10;99.90
15949;DHT22;14848;50.954;6.642;2023-08-07T12:54:10;19.50;99.90
15949;DHT22;14848;50.954;6.642;2023-08-07T12:56:36;19.50;99.90
15949;DHT22;14848;50.954;6.642;2023-08-07T12:59:01;19.30;99.90
15949;DHT22;14848;50.954;6.642;2023-08-07T13:01:28;19.20;99.90
15949;DHT22;14848;50.954;6.642;2023-08-07T13:03:53;19.20;99.90
15949;DHT22;14848;50.954;6.642;2023-08-07T13:06:20;19.30;99.90
15949;DHT22;14848;50.954;6.642;2023-08-07T13:08:46;19.50;99.90
15949;DHT22;14848;50.954;6.642;2023-08-07T13:11:11;19.80;99.90
15949;DHT22;14848;50.954;6.642;2023-08-07T13:13:37;19.90;99.90
15949;DHT22;14848;50.954;6.642;2023-08-07T13:16:04;20.00;99.90
15949;DHT22;14848;50.954;6.642;2023-08-07T13:18:29;19.90;99.90
15949;DHT22;14848;50.954;6.642;2023-08-07T13:20:56;19.70;99.90
15949;DHT22;14848;50.954;6.642;2023-08-07T13:23:22;19.50;99.90
15949;DHT22;14848;50.954;6.642;2023-08-07T13:28:14;19.30;99.90
15949;DHT22;14848;50.954;6.642;2023-08-07T13:30:40;19.20;99.90
15949;DHT22;14848;50.954;6.642;2023-08-07T13:33:06;19.10;99.90
15949;DHT22;14848;50.954;6.642;2023-08-07T13:37:58;18.70;99.90
15949;DHT22;14848;50.954;6.642;2023-08-07T13:40:24;18.30;99.90
15949;DHT22;14848;50.954;6.642;2023-08-07T13:42:50;18.00;99.90
15949;DHT22;14848;50.954;6.642;2023-08-07T13:45:15;17.80;99.90
15949;DHT22;14848;50.954;6.642;2023-08-07T13:47:41;17.90;99.90
15949;DHT22;14848;50.954;6.642;2023-08-07T13:50:07;18.00;99.90
15949;DHT22;14848;50.954;6.642;2023-08-07T13:52:35;18.20;99.90
15949;DHT22;14848;50.954;6.642;2023-08-07T13:55:01;18.50;99.90
15949;DHT22;14848;50.954;6.642;2023-08-07T13:57:26;18.70;99.90
15949;DHT22;14848;50.954;6.642;2023-08-07T13:59:52;18.90;99.90
15949;DHT22;14848;50.954;6.642;2023-08-07T14:02:19;19.20;99.90
15949;DHT22;14848;50.954;6.642;2023-08-07T14:04:45;19.40;99.90
15949;DHT22;14848;50.954;6.642;2023-08-07T14:07:11;19.20;99.90
15949;DHT22;14848;50.954;6.642;2023-08-07T14:09:37;19.20;99.90
15949;DHT22;14848;50.954;6.642;2023-08-07T14:14:29;18.40;99.90
15949;DHT22;14848;50.954;6.642;2023-08-07T14:16:57;18.50;99.90
15949;DHT22;14848;50.954;6.642;2023-08-07T14:19:26;18.50;99.90
15949;DHT22;14848;50.954;6.642;2023-08-07T14:21:51;18.40;99.90
15949;DHT22;14848;50.954;6.642;2023-08-07T14:24:17;18.60;99.90
15949;DHT22;14848;50.954;6.642;2023-08-07T14:26:43;18.30;99.90
15949;DHT22;14848;50.954;6.642;2023-08-07T14:29:09;18.30;99.90
15949;DHT22;14848;50.954;6.642;2023-08-07T14:31:34;18.20;99.90
15949;DHT22;14848;50.954;6.642;2023-08-07T14:34:00;18.30;99.90
15949;DHT22;14848;50.954;6.642;2023-08-07T14:36:25;18.30;99.90
15949;DHT22;14848;50.954;6.642;2023-08-07T14:38:51;18.50;99.90
15949;DHT22;14848;50.954;6.642;2023-08-07T14:41:18;18.80;99.90
15949;DHT22;14848;50.954;6.642;2023-08-07T14:43:44;18.90;99.90
15949;DHT22;14848;50.954;6.642;2023-08-07T14:46:10;19.10;99.90
15949;DHT22;14848;50.954;6.642;2023-08-07T14:48:35;19.10;99.90
15949;DHT22;14848;50.954;6.642;2023-08-07T14:51:01;19.10;99.90
15949;DHT22;14848;50.954;6.642;2023-08-07T14:55:55;19.20;99.90
15949;DHT22;14848;50.954;6.642;2023-08-07T14:58:22;19.40;99.90
15949;DHT22;14848;50.954;6.642;2023-08-07T15:00:47;19.50;99.90
15949;DHT22;14848;50.954;6.642;2023-08-07T15:05:41;20.60;99.90
15949;DHT22;14848;50.954;6.642;2023-08-07T15:08:07;19.60;99.90
15949;DHT22;14848;50.954;6.642;2023-08-07T15:10:32;19.70;99.90
15949;DHT22;14848;50.954;6.642;2023-08-07T15:15:25;19.50;99.90
15949;DHT22;14848;50.954;6.642;2023-08-07T15:17:51;19.60;99.90
15949;DHT22;14848;50.954;6.642;2023-08-07T15:20:18;19.60;99.90
15949;DHT22;14848;50.954;6.642;2023-08-07T15:22:46;19.60;99.90
15949;DHT22;14848;50.954;6.642;2023-08-07T15:25:12;19.70;99.90
15949;DHT22;14848;50.954;6.642;2023-08-07T15:32:30;20.20;99.90
